עמוד ראשי
METAR-TAF:

METAR-TAF

שדות תעופה :

Lanai City, הוואי, ארצות הברית

קו רוחב: 20-47N, קו אורך: 156-57W, גובה: 399מטר

תצפית מזג אוויר נוכחית

הדו"ח נערך לפני 31דקות, בשעה 00:56 UTC
רוח 3קשר עם כיוונים משתנים
טמפרטורת 23 צלסיוס
לחות 69%
לחץ 1018 hPa
ראות: 16.1קילומטר
עננים בינוניים בגובה 2500רגל
עננים בינוניים בגובה 4100רגל

METAR: PHNY 270056Z AUTO VRB03KT 10SM BKN025 BKN041 23/17 A3006 RMK AO2 SLP160 T02280167

זמן: 15:27 (01:27 UTC)

תחזית

הדו"ח נערך לפני 1 שעות ו 49דקות, בשעה 23:38 UTC
תחזית בתוקף מ 27 ב 00 UTC עד 27 ב 24 UTC
רוח 6קשר מכיוון מערב/דרום-מערב
ראות: 10קילומטר
עננים בינוניים בגובה 2500רגל
מ 27 ב 0300UTC
רוח 12קשר מכיוון צפון-מזרח
ראות: 10קילומטר
עננים פזורים בגובה 3000רגל
מ 27 ב 0800UTC
רוח 5קשר מכיוון מזרח/צפון-מזרח
ראות: 10קילומטר
עננים פזורים בגובה 2500רגל
מ 27 ב 2000UTC
רוח 6קשר מכיוון מערב/דרום-מערב
ראות: 10קילומטר
עננים בינוניים בגובה 2500רגל

TAF: PHNY 262338Z 2700/2724 25006KT P6SM BKN025 FM270300 04012KT P6SM SCT030 FM270800 06005KT P6SM SCT025 FM272000 24006KT P6SM BKN025

תצפיות ותחזיות מזג אוויר לגבי יותר מ- 4,000 שדות תעופה ברחבי העולם. דוחות METAR ו- TAF.

התחנות הזמינות מסומנות בנקודות צהובות ואדומות על גבי המפה.

העבר את העכבר לנקודה הצבעונית על מנת לראות את שם התחנה.

לאחר מכן, לחץ כדי לראות את תוכן ואת תחזיות מזג האוויר.

כדי לשנות את המפה: לחץ על הכפתורים הירוקים עם הפלוס השחור כדי להתקרב; על הכפתור הירוק עם המקף כדי להתרחק; או בחיצים הירוקים למפות סמוכות.


METAR-TAF: